sensor_id;sensor_type;location;lat;lon;timestamp;temperature;humidity
13808;DHT22;40769;51.512;5.494;2023-05-07T00:01:15;16.90;99.90
13808;DHT22;40769;51.512;5.494;2023-05-07T00:03:41;16.80;99.90
13808;DHT22;40769;51.512;5.494;2023-05-07T00:06:07;16.80;99.90
13808;DHT22;40769;51.512;5.494;2023-05-07T00:08:32;16.80;99.90
13808;DHT22;40769;51.512;5.494;2023-05-07T00:10:58;16.90;99.90
13808;DHT22;40769;51.512;5.494;2023-05-07T00:13:24;16.90;99.90
13808;DHT22;40769;51.512;5.494;2023-05-07T00:15:49;16.90;99.90
13808;DHT22;40769;51.512;5.494;2023-05-07T00:18:15;17.00;99.90
13808;DHT22;40769;51.512;5.494;2023-05-07T00:20:41;17.00;99.90
13808;DHT22;40769;51.512;5.494;2023-05-07T00:23:06;17.00;99.90
13808;DHT22;40769;51.512;5.494;2023-05-07T00:25:32;17.10;99.90
13808;DHT22;40769;51.512;5.494;2023-05-07T00:27:57;17.10;99.90
13808;DHT22;40769;51.512;5.494;2023-05-07T00:30:28;17.10;99.90
13808;DHT22;40769;51.512;5.494;2023-05-07T00:32:54;17.10;99.90
13808;DHT22;40769;51.512;5.494;2023-05-07T00:35:20;17.10;99.90
13808;DHT22;40769;51.512;5.494;2023-05-07T00:37:45;17.20;99.90
13808;DHT22;40769;51.512;5.494;2023-05-07T00:40:11;17.20;99.90
13808;DHT22;40769;51.512;5.494;2023-05-07T00:42:37;17.20;99.90
13808;DHT22;40769;51.512;5.494;2023-05-07T00:45:03;17.20;99.90
13808;DHT22;40769;51.512;5.494;2023-05-07T00:47:29;17.20;99.90
13808;DHT22;40769;51.512;5.494;2023-05-07T00:49:55;17.20;99.90
13808;DHT22;40769;51.512;5.494;2023-05-07T00:52:25;17.20;99.90
13808;DHT22;40769;51.512;5.494;2023-05-07T00:54:51;17.20;99.90
13808;DHT22;40769;51.512;5.494;2023-05-07T00:57:17;17.20;99.90
13808;DHT22;40769;51.512;5.494;2023-05-07T00:59:43;17.30;99.90
13808;DHT22;40769;51.512;5.494;2023-05-07T01:02:08;17.20;99.90
13808;DHT22;40769;51.512;5.494;2023-05-07T01:04:34;17.30;99.90
13808;DHT22;40769;51.512;5.494;2023-05-07T01:07:01;17.30;99.90
13808;DHT22;40769;51.512;5.494;2023-05-07T01:09:27;17.30;99.90
13808;DHT22;40769;51.512;5.494;2023-05-07T01:11:54;17.30;99.90
13808;DHT22;40769;51.512;5.494;2023-05-07T01:14:20;17.30;99.90
13808;DHT22;40769;51.512;5.494;2023-05-07T01:16:47;17.30;99.90
13808;DHT22;40769;51.512;5.494;2023-05-07T01:19:14;17.30;99.90
13808;DHT22;40769;51.512;5.494;2023-05-07T01:21:46;17.30;99.90
13808;DHT22;40769;51.512;5.494;2023-05-07T01:24:12;17.40;99.90
13808;DHT22;40769;51.512;5.494;2023-05-07T01:26:38;17.40;99.90
13808;DHT22;40769;51.512;5.494;2023-05-07T01:29:04;17.40;99.90
13808;DHT22;40769;51.512;5.494;2023-05-07T01:31:30;17.40;99.90
13808;DHT22;40769;51.512;5.494;2023-05-07T01:33:57;17.40;99.90
13808;DHT22;40769;51.512;5.494;2023-05-07T01:36:24;17.50;99.90
13808;DHT22;40769;51.512;5.494;2023-05-07T01:38:52;17.40;99.90
13808;DHT22;40769;51.512;5.494;2023-05-07T01:41:19;17.60;99.90
13808;DHT22;40769;51.512;5.494;2023-05-07T01:43:46;17.50;99.90
13808;DHT22;40769;51.512;5.494;2023-05-07T01:46:13;17.50;99.90
13808;DHT22;40769;51.512;5.494;2023-05-07T01:48:39;17.30;99.90
13808;DHT22;40769;51.512;5.494;2023-05-07T01:51:05;17.30;99.90
13808;DHT22;40769;51.512;5.494;2023-05-07T01:53:40;17.30;99.90
13808;DHT22;40769;51.512;5.494;2023-05-07T01:56:07;17.30;99.90
13808;DHT22;40769;51.512;5.494;2023-05-07T01:58:32;17.30;99.90
13808;DHT22;40769;51.512;5.494;2023-05-07T02:00:58;17.30;99.90
13808;DHT22;40769;51.512;5.494;2023-05-07T02:03:24;17.30;99.90
13808;DHT22;40769;51.512;5.494;2023-05-07T02:05:49;17.30;99.90
13808;DHT22;40769;51.512;5.494;2023-05-07T02:08:15;17.30;99.90
13808;DHT22;40769;51.512;5.494;2023-05-07T02:10:41;17.30;99.90
13808;DHT22;40769;51.512;5.494;2023-05-07T02:13:06;17.30;99.90
13808;DHT22;40769;51.512;5.494;2023-05-07T02:15:32;17.30;99.90
13808;DHT22;40769;51.512;5.494;2023-05-07T02:18:05;17.20;99.90
13808;DHT22;40769;51.512;5.494;2023-05-07T02:20:32;17.20;99.90
13808;DHT22;40769;51.512;5.494;2023-05-07T02:22:57;17.20;99.90
13808;DHT22;40769;51.512;5.494;2023-05-07T02:25:23;17.10;99.90
13808;DHT22;40769;51.512;5.494;2023-05-07T02:27:48;17.10;99.90
13808;DHT22;40769;51.512;5.494;2023-05-07T02:30:14;17.00;99.90
13808;DHT22;40769;51.512;5.494;2023-05-07T02:32:40;17.10;99.90
13808;DHT22;40769;51.512;5.494;2023-05-07T02:35:06;17.00;99.90
13808;DHT22;40769;51.512;5.494;2023-05-07T02:37:31;17.10;99.90
13808;DHT22;40769;51.512;5.494;2023-05-07T02:39:57;17.30;99.90
13808;DHT22;40769;51.512;5.494;2023-05-07T02:42:23;17.10;99.90
13808;DHT22;40769;51.512;5.494;2023-05-07T02:44:48;17.20;99.90
13808;DHT22;40769;51.512;5.494;2023-05-07T02:47:15;17.20;99.90
13808;DHT22;40769;51.512;5.494;2023-05-07T02:49:41;17.20;99.90
13808;DHT22;40769;51.512;5.494;2023-05-07T02:52:07;17.20;99.90
13808;DHT22;40769;51.512;5.494;2023-05-07T02:54:33;17.20;99.90
13808;DHT22;40769;51.512;5.494;2023-05-07T02:56:58;17.20;99.90
13808;DHT22;40769;51.512;5.494;2023-05-07T02:59:26;17.20;99.90
13808;DHT22;40769;51.512;5.494;2023-05-07T03:01:51;17.20;99.90
13808;DHT22;40769;51.512;5.494;2023-05-07T03:04:17;17.20;99.90
13808;DHT22;40769;51.512;5.494;2023-05-07T03:06:43;17.20;99.90
13808;DHT22;40769;51.512;5.494;2023-05-07T03:09:08;17.20;99.90
13808;DHT22;40769;51.512;5.494;2023-05-07T03:11:34;17.20;99.90
13808;DHT22;40769;51.512;5.494;2023-05-07T03:14:01;17.20;99.90
13808;DHT22;40769;51.512;5.494;2023-05-07T03:16:27;17.20;99.90
13808;DHT22;40769;51.512;5.494;2023-05-07T03:18:52;17.20;99.90
13808;DHT22;40769;51.512;5.494;2023-05-07T03:21:18;17.20;99.90
13808;DHT22;40769;51.512;5.494;2023-05-07T03:23:44;17.20;99.90
13808;DHT22;40769;51.512;5.494;2023-05-07T03:26:10;17.20;99.90
13808;DHT22;40769;51.512;5.494;2023-05-07T03:28:37;17.20;99.90
13808;DHT22;40769;51.512;5.494;2023-05-07T03:31:02;17.20;99.90
13808;DHT22;40769;51.512;5.494;2023-05-07T03:33:28;17.20;99.90
13808;DHT22;40769;51.512;5.494;2023-05-07T03:35:54;17.20;99.90
13808;DHT22;40769;51.512;5.494;2023-05-07T03:38:19;17.20;99.90
13808;DHT22;40769;51.512;5.494;2023-05-07T03:40:45;17.20;99.90
13808;DHT22;40769;51.512;5.494;2023-05-07T03:43:10;17.20;99.90
13808;DHT22;40769;51.512;5.494;2023-05-07T03:45:36;17.20;99.90
13808;DHT22;40769;51.512;5.494;2023-05-07T03:48:02;17.20;99.90
13808;DHT22;40769;51.512;5.494;2023-05-07T03:50:28;17.20;99.90
13808;DHT22;40769;51.512;5.494;2023-05-07T03:52:53;17.20;99.90
13808;DHT22;40769;51.512;5.494;2023-05-07T03:55:19;17.20;99.90
13808;DHT22;40769;51.512;5.494;2023-05-07T03:57:45;17.20;99.90
13808;DHT22;40769;51.512;5.494;2023-05-07T04:00:11;17.10;99.90
13808;DHT22;40769;51.512;5.494;2023-05-07T04:02:37;17.10;99.90
13808;DHT22;40769;51.512;5.494;2023-05-07T04:05:02;17.10;99.90
13808;DHT22;40769;51.512;5.494;2023-05-07T04:07:28;17.20;99.90
13808;DHT22;40769;51.512;5.494;2023-05-07T04:09:53;17.20;99.90
13808;DHT22;40769;51.512;5.494;2023-05-07T04:12:19;17.20;99.90
13808;DHT22;40769;51.512;5.494;2023-05-07T04:14:45;17.20;99.90
13808;DHT22;40769;51.512;5.494;2023-05-07T04:17:10;17.20;99.90
13808;DHT22;40769;51.512;5.494;2023-05-07T04:19:36;17.20;99.90
13808;DHT22;40769;51.512;5.494;2023-05-07T04:22:01;17.20;99.90
13808;DHT22;40769;51.512;5.494;2023-05-07T04:24:27;17.30;99.90
13808;DHT22;40769;51.512;5.494;2023-05-07T04:26:52;17.40;99.90
13808;DHT22;40769;51.512;5.494;2023-05-07T04:29:18;17.30;99.90
13808;DHT22;40769;51.512;5.494;2023-05-07T04:31:44;17.30;99.90
13808;DHT22;40769;51.512;5.494;2023-05-07T04:34:11;17.40;99.90
13808;DHT22;40769;51.512;5.494;2023-05-07T04:36:38;17.30;99.90
13808;DHT22;40769;51.512;5.494;2023-05-07T04:39:04;17.30;99.90
13808;DHT22;40769;51.512;5.494;2023-05-07T04:41:29;17.30;99.90
13808;DHT22;40769;51.512;5.494;2023-05-07T04:43:55;17.30;99.90
13808;DHT22;40769;51.512;5.494;2023-05-07T04:46:22;17.30;99.90
13808;DHT22;40769;51.512;5.494;2023-05-07T04:48:49;17.30;99.90
13808;DHT22;40769;51.512;5.494;2023-05-07T04:51:14;17.30;99.90
13808;DHT22;40769;51.512;5.494;2023-05-07T04:53:40;17.50;99.90
13808;DHT22;40769;51.512;5.494;2023-05-07T04:56:06;17.30;99.90
13808;DHT22;40769;51.512;5.494;2023-05-07T04:58:31;17.30;99.90
13808;DHT22;40769;51.512;5.494;2023-05-07T05:00:58;17.30;99.90
13808;DHT22;40769;51.512;5.494;2023-05-07T05:03:23;17.40;99.90
13808;DHT22;40769;51.512;5.494;2023-05-07T05:05:50;17.50;99.90
13808;DHT22;40769;51.512;5.494;2023-05-07T05:08:17;17.50;99.90
13808;DHT22;40769;51.512;5.494;2023-05-07T05:10:43;17.50;99.90
13808;DHT22;40769;51.512;5.494;2023-05-07T05:13:09;17.50;99.90
13808;DHT22;40769;51.512;5.494;2023-05-07T05:15:35;17.50;99.90
13808;DHT22;40769;51.512;5.494;2023-05-07T05:18:01;17.50;99.90
13808;DHT22;40769;51.512;5.494;2023-05-07T05:20:26;17.60;99.90
13808;DHT22;40769;51.512;5.494;2023-05-07T05:22:52;17.60;99.90
13808;DHT22;40769;51.512;5.494;2023-05-07T05:25:17;17.60;99.90
13808;DHT22;40769;51.512;5.494;2023-05-07T05:27:43;17.70;99.90
13808;DHT22;40769;51.512;5.494;2023-05-07T05:30:09;17.70;99.90
13808;DHT22;40769;51.512;5.494;2023-05-07T05:32:34;17.80;99.90
13808;DHT22;40769;51.512;5.494;2023-05-07T05:35:00;17.80;99.90
13808;DHT22;40769;51.512;5.494;2023-05-07T05:37:25;17.90;99.90
13808;DHT22;40769;51.512;5.494;2023-05-07T05:39:52;17.90;99.90
13808;DHT22;40769;51.512;5.494;2023-05-07T05:42:18;17.90;99.90
13808;DHT22;40769;51.512;5.494;2023-05-07T05:44:43;18.00;99.90
13808;DHT22;40769;51.512;5.494;2023-05-07T05:47:09;18.00;99.90
13808;DHT22;40769;51.512;5.494;2023-05-07T05:49:34;18.10;99.90
13808;DHT22;40769;51.512;5.494;2023-05-07T05:52:00;18.10;99.90
13808;DHT22;40769;51.512;5.494;2023-05-07T05:54:26;18.10;99.90
13808;DHT22;40769;51.512;5.494;2023-05-07T05:56:51;18.40;99.90
13808;DHT22;40769;51.512;5.494;2023-05-07T05:59:17;18.20;99.90
13808;DHT22;40769;51.512;5.494;2023-05-07T06:01:42;18.20;99.90
13808;DHT22;40769;51.512;5.494;2023-05-07T06:04:08;18.40;99.90
13808;DHT22;40769;51.512;5.494;2023-05-07T06:06:34;18.30;99.90
13808;DHT22;40769;51.512;5.494;2023-05-07T06:08:59;18.50;99.90
13808;DHT22;40769;51.512;5.494;2023-05-07T06:11:25;18.40;99.90
13808;DHT22;40769;51.512;5.494;2023-05-07T06:13:51;18.50;99.90
13808;DHT22;40769;51.512;5.494;2023-05-07T06:16:16;18.60;99.90
13808;DHT22;40769;51.512;5.494;2023-05-07T06:18:42;18.60;99.90
13808;DHT22;40769;51.512;5.494;2023-05-07T06:21:07;18.70;99.90
13808;DHT22;40769;51.512;5.494;2023-05-07T06:23:33;18.70;99.90
13808;DHT22;40769;51.512;5.494;2023-05-07T06:25:58;18.80;99.90
13808;DHT22;40769;51.512;5.494;2023-05-07T06:28:24;18.80;99.90
13808;DHT22;40769;51.512;5.494;2023-05-07T06:30:50;18.90;99.90
13808;DHT22;40769;51.512;5.494;2023-05-07T06:33:16;18.90;99.90
13808;DHT22;40769;51.512;5.494;2023-05-07T06:35:41;19.00;99.90
13808;DHT22;40769;51.512;5.494;2023-05-07T06:38:07;19.00;99.90
13808;DHT22;40769;51.512;5.494;2023-05-07T06:40:32;19.00;99.90
13808;DHT22;40769;51.512;5.494;2023-05-07T06:42:58;19.10;99.90
13808;DHT22;40769;51.512;5.494;2023-05-07T06:45:23;19.10;99.90
13808;DHT22;40769;51.512;5.494;2023-05-07T06:47:50;19.20;99.90
13808;DHT22;40769;51.512;5.494;2023-05-07T06:50:16;19.20;99.90
13808;DHT22;40769;51.512;5.494;2023-05-07T06:52:42;19.30;99.90
13808;DHT22;40769;51.512;5.494;2023-05-07T06:55:08;19.40;99.90
13808;DHT22;40769;51.512;5.494;2023-05-07T06:57:34;19.30;99.90
13808;DHT22;40769;51.512;5.494;2023-05-07T06:59:59;19.40;99.90
13808;DHT22;40769;51.512;5.494;2023-05-07T07:02:25;19.40;99.90
13808;DHT22;40769;51.512;5.494;2023-05-07T07:04:51;19.50;99.90
13808;DHT22;40769;51.512;5.494;2023-05-07T07:07:16;19.50;99.90
13808;DHT22;40769;51.512;5.494;2023-05-07T07:09:42;19.50;99.90
13808;DHT22;40769;51.512;5.494;2023-05-07T07:12:08;19.50;99.90
13808;DHT22;40769;51.512;5.494;2023-05-07T07:14:33;19.60;99.90
13808;DHT22;40769;51.512;5.494;2023-05-07T07:16:59;19.60;99.90
13808;DHT22;40769;51.512;5.494;2023-05-07T07:19:25;19.60;99.90
13808;DHT22;40769;51.512;5.494;2023-05-07T07:21:50;19.70;99.90
13808;DHT22;40769;51.512;5.494;2023-05-07T07:24:16;19.60;99.90
13808;DHT22;40769;51.512;5.494;2023-05-07T07:26:46;19.70;99.90
13808;DHT22;40769;51.512;5.494;2023-05-07T07:29:12;19.70;99.90
13808;DHT22;40769;51.512;5.494;2023-05-07T07:31:37;19.70;99.90
13808;DHT22;40769;51.512;5.494;2023-05-07T07:34:03;19.70;99.90
13808;DHT22;40769;51.512;5.494;2023-05-07T07:36:28;19.70;99.90
13808;DHT22;40769;51.512;5.494;2023-05-07T07:38:54;19.80;99.90
13808;DHT22;40769;51.512;5.494;2023-05-07T07:41:20;19.80;99.90
13808;DHT22;40769;51.512;5.494;2023-05-07T07:43:45;19.80;99.90
13808;DHT22;40769;51.512;5.494;2023-05-07T07:46:12;19.80;99.90
13808;DHT22;40769;51.512;5.494;2023-05-07T07:48:38;19.90;99.90
13808;DHT22;40769;51.512;5.494;2023-05-07T07:51:03;20.00;99.90
13808;DHT22;40769;51.512;5.494;2023-05-07T07:53:29;20.00;99.90
13808;DHT22;40769;51.512;5.494;2023-05-07T07:55:55;20.10;99.90
13808;DHT22;40769;51.512;5.494;2023-05-07T07:58:21;20.20;99.90
13808;DHT22;40769;51.512;5.494;2023-05-07T08:00:47;20.30;99.90
13808;DHT22;40769;51.512;5.494;2023-05-07T08:03:13;20.50;99.90
13808;DHT22;40769;51.512;5.494;2023-05-07T08:05:39;20.50;99.90
13808;DHT22;40769;51.512;5.494;2023-05-07T08:08:05;20.60;99.90
13808;DHT22;40769;51.512;5.494;2023-05-07T08:10:31;20.70;99.90
13808;DHT22;40769;51.512;5.494;2023-05-07T08:13:00;20.80;99.90
13808;DHT22;40769;51.512;5.494;2023-05-07T08:15:25;20.90;99.90
13808;DHT22;40769;51.512;5.494;2023-05-07T08:17:51;21.00;99.90
13808;DHT22;40769;51.512;5.494;2023-05-07T08:20:17;21.20;99.90
13808;DHT22;40769;51.512;5.494;2023-05-07T08:22:42;21.30;99.90
13808;DHT22;40769;51.512;5.494;2023-05-07T08:25:08;21.50;99.90
13808;DHT22;40769;51.512;5.494;2023-05-07T08:27:34;21.70;99.90
13808;DHT22;40769;51.512;5.494;2023-05-07T08:29:59;21.80;99.90
13808;DHT22;40769;51.512;5.494;2023-05-07T08:32:25;22.00;99.90
13808;DHT22;40769;51.512;5.494;2023-05-07T08:34:51;22.20;99.90
13808;DHT22;40769;51.512;5.494;2023-05-07T08:37:17;22.30;99.90
13808;DHT22;40769;51.512;5.494;2023-05-07T08:39:42;22.50;99.90
13808;DHT22;40769;51.512;5.494;2023-05-07T08:42:09;22.60;99.90
13808;DHT22;40769;51.512;5.494;2023-05-07T08:44:38;22.70;99.90
13808;DHT22;40769;51.512;5.494;2023-05-07T08:47:06;22.90;99.90
13808;DHT22;40769;51.512;5.494;2023-05-07T08:49:33;23.00;99.90
13808;DHT22;40769;51.512;5.494;2023-05-07T08:51:59;23.20;99.90
13808;DHT22;40769;51.512;5.494;2023-05-07T08:54:25;23.30;99.90
13808;DHT22;40769;51.512;5.494;2023-05-07T08:56:51;23.50;99.90
13808;DHT22;40769;51.512;5.494;2023-05-07T08:59:17;23.50;99.90
13808;DHT22;40769;51.512;5.494;2023-05-07T09:01:42;23.70;99.90
13808;DHT22;40769;51.512;5.494;2023-05-07T09:04:08;23.70;99.90
13808;DHT22;40769;51.512;5.494;2023-05-07T09:06:34;23.80;99.90
13808;DHT22;40769;51.512;5.494;2023-05-07T09:09:00;23.90;99.90
13808;DHT22;40769;51.512;5.494;2023-05-07T09:11:27;23.90;99.90
13808;DHT22;40769;51.512;5.494;2023-05-07T09:13:56;23.90;99.90
13808;DHT22;40769;51.512;5.494;2023-05-07T09:16:23;24.00;99.90
13808;DHT22;40769;51.512;5.494;2023-05-07T09:18:51;24.10;99.90
13808;DHT22;40769;51.512;5.494;2023-05-07T09:21:18;24.10;99.90
13808;DHT22;40769;51.512;5.494;2023-05-07T09:23:44;24.20;99.90
13808;DHT22;40769;51.512;5.494;2023-05-07T09:26:09;24.30;99.90
13808;DHT22;40769;51.512;5.494;2023-05-07T09:28:43;24.30;99.90
13808;DHT22;40769;51.512;5.494;2023-05-07T09:31:10;24.50;99.90
13808;DHT22;40769;51.512;5.494;2023-05-07T09:33:37;24.50;99.90
13808;DHT22;40769;51.512;5.494;2023-05-07T09:36:07;24.50;99.90
13808;DHT22;40769;51.512;5.494;2023-05-07T09:38:34;24.60;99.90
13808;DHT22;40769;51.512;5.494;2023-05-07T09:41:05;24.80;99.90
13808;DHT22;40769;51.512;5.494;2023-05-07T09:43:33;24.80;99.90
13808;DHT22;40769;51.512;5.494;2023-05-07T09:46:03;24.90;99.90
13808;DHT22;40769;51.512;5.494;2023-05-07T09:48:29;25.00;99.90
13808;DHT22;40769;51.512;5.494;2023-05-07T09:50:57;25.10;99.90
13808;DHT22;40769;51.512;5.494;2023-05-07T09:53:25;25.20;99.90
13808;DHT22;40769;51.512;5.494;2023-05-07T09:55:52;25.30;99.90
13808;DHT22;40769;51.512;5.494;2023-05-07T09:58:18;25.50;99.90
13808;DHT22;40769;51.512;5.494;2023-05-07T10:00:44;25.50;99.90
13808;DHT22;40769;51.512;5.494;2023-05-07T10:03:11;25.70;99.90
13808;DHT22;40769;51.512;5.494;2023-05-07T10:05:38;25.80;99.90
13808;DHT22;40769;51.512;5.494;2023-05-07T10:08:04;26.00;99.90
13808;DHT22;40769;51.512;5.494;2023-05-07T10:10:32;26.20;99.90
13808;DHT22;40769;51.512;5.494;2023-05-07T10:12:58;26.30;99.90
13808;DHT22;40769;51.512;5.494;2023-05-07T10:15:24;26.50;99.90
13808;DHT22;40769;51.512;5.494;2023-05-07T10:17:51;26.60;99.90
13808;DHT22;40769;51.512;5.494;2023-05-07T10:20:18;26.80;99.90
13808;DHT22;40769;51.512;5.494;2023-05-07T10:22:46;27.00;99.90
13808;DHT22;40769;51.512;5.494;2023-05-07T10:25:23;27.10;99.90
13808;DHT22;40769;51.512;5.494;2023-05-07T10:27:51;27.20;99.90
13808;DHT22;40769;51.512;5.494;2023-05-07T10:32:49;27.60;99.90
13808;DHT22;40769;51.512;5.494;2023-05-07T10:35:21;27.70;99.90
13808;DHT22;40769;51.512;5.494;2023-05-07T10:37:48;27.90;99.90
13808;DHT22;40769;51.512;5.494;2023-05-07T10:40:14;28.20;99.90
13808;DHT22;40769;51.512;5.494;2023-05-07T10:42:56;28.40;99.90
13808;DHT22;40769;51.512;5.494;2023-05-07T10:45:23;28.70;99.90
13808;DHT22;40769;51.512;5.494;2023-05-07T10:50:40;29.30;99.90
13808;DHT22;40769;51.512;5.494;2023-05-07T10:55:48;29.70;99.90
13808;DHT22;40769;51.512;5.494;2023-05-07T10:58:27;29.80;99.90
13808;DHT22;40769;51.512;5.494;2023-05-07T11:01:01;30.00;99.90
13808;DHT22;40769;51.512;5.494;2023-05-07T11:03:27;30.10;99.90
13808;DHT22;40769;51.512;5.494;2023-05-07T11:06:12;30.30;99.90
13808;DHT22;40769;51.512;5.494;2023-05-07T11:09:07;30.40;99.90
13808;DHT22;40769;51.512;5.494;2023-05-07T11:11:50;30.50;99.90
13808;DHT22;40769;51.512;5.494;2023-05-07T11:14:50;30.60;99.90
13808;DHT22;40769;51.512;5.494;2023-05-07T11:17:17;30.60;99.90
13808;DHT22;40769;51.512;5.494;2023-05-07T11:19:53;30.60;99.90
13808;DHT22;40769;51.512;5.494;2023-05-07T11:22:39;30.60;99.90
13808;DHT22;40769;51.512;5.494;2023-05-07T11:25:06;30.60;99.90
13808;DHT22;40769;51.512;5.494;2023-05-07T11:27:32;30.60;99.90
13808;DHT22;40769;51.512;5.494;2023-05-07T11:29:58;30.70;99.90
13808;DHT22;40769;51.512;5.494;2023-05-07T11:32:29;30.80;99.90
13808;DHT22;40769;51.512;5.494;2023-05-07T11:34:55;30.80;99.90
13808;DHT22;40769;51.512;5.494;2023-05-07T11:37:22;30.90;99.90
13808;DHT22;40769;51.512;5.494;2023-05-07T11:39:48;31.00;99.90
13808;DHT22;40769;51.512;5.494;2023-05-07T11:42:34;31.00;99.90
13808;DHT22;40769;51.512;5.494;2023-05-07T11:45:00;31.00;99.90
13808;DHT22;40769;51.512;5.494;2023-05-07T11:47:26;31.00;99.90
13808;DHT22;40769;51.512;5.494;2023-05-07T11:49:55;31.10;99.90
13808;DHT22;40769;51.512;5.494;2023-05-07T11:52:22;31.10;99.90
13808;DHT22;40769;51.512;5.494;2023-05-07T11:54:55;31.00;99.90
13808;DHT22;40769;51.512;5.494;2023-05-07T11:57:22;31.00;99.90
13808;DHT22;40769;51.512;5.494;2023-05-07T11:59:48;30.90;99.90
13808;DHT22;40769;51.512;5.494;2023-05-07T12:02:17;30.80;99.90
13808;DHT22;40769;51.512;5.494;2023-05-07T12:04:44;30.70;99.90
13808;DHT22;40769;51.512;5.494;2023-05-07T12:07:14;30.50;99.90
13808;DHT22;40769;51.512;5.494;2023-05-07T12:09:43;30.40;99.90
13808;DHT22;40769;51.512;5.494;2023-05-07T12:12:09;30.20;99.90
13808;DHT22;40769;51.512;5.494;2023-05-07T12:14:39;30.10;99.90
13808;DHT22;40769;51.512;5.494;2023-05-07T12:17:05;30.00;99.90
13808;DHT22;40769;51.512;5.494;2023-05-07T12:19:33;29.80;99.90
13808;DHT22;40769;51.512;5.494;2023-05-07T12:22:03;29.70;99.90
13808;DHT22;40769;51.512;5.494;2023-05-07T12:24:28;29.60;99.90
13808;DHT22;40769;51.512;5.494;2023-05-07T12:26:54;29.50;99.90
13808;DHT22;40769;51.512;5.494;2023-05-07T12:29:23;29.30;99.90
13808;DHT22;40769;51.512;5.494;2023-05-07T12:31:49;29.20;99.90
13808;DHT22;40769;51.512;5.494;2023-05-07T12:34:15;29.00;99.90
13808;DHT22;40769;51.512;5.494;2023-05-07T12:36:41;28.90;99.90
13808;DHT22;40769;51.512;5.494;2023-05-07T12:39:08;28.60;99.90
13808;DHT22;40769;51.512;5.494;2023-05-07T12:41:53;28.50;99.90
13808;DHT22;40769;51.512;5.494;2023-05-07T12:44:22;28.20;99.90
13808;DHT22;40769;51.512;5.494;2023-05-07T12:46:48;28.00;99.90
13808;DHT22;40769;51.512;5.494;2023-05-07T12:49:13;27.80;99.90
13808;DHT22;40769;51.512;5.494;2023-05-07T12:51:39;27.40;99.90
13808;DHT22;40769;51.512;5.494;2023-05-07T12:54:05;27.00;99.90
13808;DHT22;40769;51.512;5.494;2023-05-07T12:56:31;26.40;99.90
13808;DHT22;40769;51.512;5.494;2023-05-07T12:58:57;25.80;99.90
13808;DHT22;40769;51.512;5.494;2023-05-07T13:01:29;25.10;99.90
13808;DHT22;40769;51.512;5.494;2023-05-07T13:03:55;24.30;99.90
13808;DHT22;40769;51.512;5.494;2023-05-07T13:06:21;23.40;99.90
13808;DHT22;40769;51.512;5.494;2023-05-07T13:08:47;22.50;99.90
13808;DHT22;40769;51.512;5.494;2023-05-07T13:11:12;21.60;99.90
13808;DHT22;40769;51.512;5.494;2023-05-07T13:13:39;20.80;99.90
13808;DHT22;40769;51.512;5.494;2023-05-07T13:16:06;20.20;99.90
13808;DHT22;40769;51.512;5.494;2023-05-07T13:18:33;19.60;99.90
13808;DHT22;40769;51.512;5.494;2023-05-07T13:20:59;19.10;99.90
13808;DHT22;40769;51.512;5.494;2023-05-07T13:23:26;18.70;99.90
13808;DHT22;40769;51.512;5.494;2023-05-07T13:25:51;18.40;99.90
13808;DHT22;40769;51.512;5.494;2023-05-07T13:28:21;18.20;99.90
13808;DHT22;40769;51.512;5.494;2023-05-07T13:30:47;18.00;99.90
13808;DHT22;40769;51.512;5.494;2023-05-07T13:33:13;17.80;99.90
13808;DHT22;40769;51.512;5.494;2023-05-07T13:35:39;17.70;99.90
13808;DHT22;40769;51.512;5.494;2023-05-07T13:38:05;17.60;99.90
13808;DHT22;40769;51.512;5.494;2023-05-07T13:40:31;17.70;99.90
13808;DHT22;40769;51.512;5.494;2023-05-07T13:42:59;17.60;99.90
13808;DHT22;40769;51.512;5.494;2023-05-07T13:45:27;17.60;99.90
13808;DHT22;40769;51.512;5.494;2023-05-07T13:47:55;17.70;99.90
13808;DHT22;40769;51.512;5.494;2023-05-07T13:50:21;17.60;99.90
13808;DHT22;40769;51.512;5.494;2023-05-07T13:52:46;17.70;99.90
13808;DHT22;40769;51.512;5.494;2023-05-07T13:55:19;17.80;99.90
13808;DHT22;40769;51.512;5.494;2023-05-07T13:57:46;17.90;99.90
13808;DHT22;40769;51.512;5.494;2023-05-07T14:00:13;18.00;99.90
13808;DHT22;40769;51.512;5.494;2023-05-07T14:02:38;18.10;99.90
13808;DHT22;40769;51.512;5.494;2023-05-07T14:05:04;18.20;99.90
13808;DHT22;40769;51.512;5.494;2023-05-07T14:07:30;18.40;99.90
13808;DHT22;40769;51.512;5.494;2023-05-07T14:09:56;18.80;99.90
13808;DHT22;40769;51.512;5.494;2023-05-07T14:12:22;18.80;99.90
13808;DHT22;40769;51.512;5.494;2023-05-07T14:14:48;19.00;99.90
13808;DHT22;40769;51.512;5.494;2023-05-07T14:17:16;19.20;99.90
13808;DHT22;40769;51.512;5.494;2023-05-07T14:19:42;19.30;99.90
13808;DHT22;40769;51.512;5.494;2023-05-07T14:22:08;19.40;99.90
13808;DHT22;40769;51.512;5.494;2023-05-07T14:24:33;19.50;99.90
13808;DHT22;40769;51.512;5.494;2023-05-07T14:26:59;19.50;99.90
13808;DHT22;40769;51.512;5.494;2023-05-07T14:29:25;19.50;99.90
13808;DHT22;40769;51.512;5.494;2023-05-07T14:31:51;19.50;99.90
13808;DHT22;40769;51.512;5.494;2023-05-07T14:34:19;19.70;99.90
13808;DHT22;40769;51.512;5.494;2023-05-07T14:36:45;19.60;99.90
13808;DHT22;40769;51.512;5.494;2023-05-07T14:39:11;19.70;99.90
13808;DHT22;40769;51.512;5.494;2023-05-07T14:41:36;19.80;99.90
13808;DHT22;40769;51.512;5.494;2023-05-07T14:44:02;19.70;99.90
13808;DHT22;40769;51.512;5.494;2023-05-07T14:46:29;19.70;99.90
13808;DHT22;40769;51.512;5.494;2023-05-07T14:48:56;19.70;99.90
13808;DHT22;40769;51.512;5.494;2023-05-07T14:51:22;19.70;99.90
13808;DHT22;40769;51.512;5.494;2023-05-07T14:53:50;19.80;99.90
13808;DHT22;40769;51.512;5.494;2023-05-07T14:56:15;19.80;99.90
13808;DHT22;40769;51.512;5.494;2023-05-07T14:58:42;19.80;99.90
13808;DHT22;40769;51.512;5.494;2023-05-07T15:01:08;19.80;99.90
13808;DHT22;40769;51.512;5.494;2023-05-07T15:03:34;19.80;99.90
13808;DHT22;40769;51.512;5.494;2023-05-07T15:05:59;19.80;99.90
13808;DHT22;40769;51.512;5.494;2023-05-07T15:08:25;19.80;99.90
13808;DHT22;40769;51.512;5.494;2023-05-07T15:10:51;19.80;99.90
13808;DHT22;40769;51.512;5.494;2023-05-07T15:13:17;19.80;99.90
13808;DHT22;40769;51.512;5.494;2023-05-07T15:15:45;19.80;99.90
13808;DHT22;40769;51.512;5.494;2023-05-07T15:18:10;19.80;99.90
13808;DHT22;40769;51.512;5.494;2023-05-07T15:20:37;19.80;99.90
13808;DHT22;40769;51.512;5.494;2023-05-07T15:23:03;19.70;99.90
13808;DHT22;40769;51.512;5.494;2023-05-07T15:25:31;19.60;99.90
13808;DHT22;40769;51.512;5.494;2023-05-07T15:27:58;19.60;99.90
13808;DHT22;40769;51.512;5.494;2023-05-07T15:30:23;19.60;99.90
13808;DHT22;40769;51.512;5.494;2023-05-07T15:32:49;19.70;99.90
13808;DHT22;40769;51.512;5.494;2023-05-07T15:35:16;19.60;99.90